map of APO home
APO - Airport
Location
City:  Apartadó, Antioquia, Colombia
Near (Alt.):Carepa
Name:Antonio Roldán Betancourt Airport
Old (Alt.):Los Cedros Airport
ICAO:SKLC
IATA:APO

Details
Type:Airport (Aerodrome, Airfield)
Latitude:7°48'43"N (7.811817)
Longitude:76°42'59"W (-76.716324)
Elevation:46 ft (14 m)
Variation:6.16°W (WMM2015 magnetic declination)
-0.14° annual change
Runways:1
Longest:7153 × 98 ft (2180 × 30 m), paved

Time
Time Zone:UTC-5
Local Time:

Weather
METAR:SKLC 151200Z VRB02KT 8000 FEW017 SCT200 24/23 A2990 RMK HZ

Related Locations
Nearby:
Farthest:WIPD: 12218 mi / 19663 km
Pasar Bandingagung [Banding Agung], SS, ID

Find:

   beyond  
but within

Other Information
Maps:
NOTAMs:
Links:
Sources:

  
  • flag of Colombia
  • flag of Antioquia
  

Sectional Chart

Flight Planning
at skyvector.com

Satellite Image

Google Maps Satellite view

 

Copyright © 2004-2018 Karl L. Swartz. All rights reserved.
The Great Circle Mapper name and logo are trademarks of the Great Circle Mapper.
All other trademarks mentioned herein belong to their respective owners.
Please see credits for attibutions and further copyright information.

  Follow gcmap on Facebook Follow gcmap on Twitter Follow gcmap on Google+ GCmap on LinkedIn

hCard Microformat

Geo Microformat